sensor_id;sensor_type;location;lat;lon;timestamp;P1;durP1;ratioP1;P2;durP2;ratioP2
8419;SDS011;4247;48.550;8.822;2023-05-01T00:01:10;1.67;;;1.57;;
8419;SDS011;4247;48.550;8.822;2023-05-01T00:03:38;1.57;;;1.47;;
8419;SDS011;4247;48.550;8.822;2023-05-01T00:06:05;1.87;;;1.73;;
8419;SDS011;4247;48.550;8.822;2023-05-01T00:08:32;2.33;;;2.13;;
8419;SDS011;4247;48.550;8.822;2023-05-01T00:11:01;1.73;;;1.40;;
8419;SDS011;4247;48.550;8.822;2023-05-01T00:13:28;2.00;;;1.50;;
8419;SDS011;4247;48.550;8.822;2023-05-01T00:15:55;1.80;;;1.70;;
8419;SDS011;4247;48.550;8.822;2023-05-01T00:18:22;4.60;;;2.30;;
8419;SDS011;4247;48.550;8.822;2023-05-01T00:20:50;2.03;;;1.90;;
8419;SDS011;4247;48.550;8.822;2023-05-01T00:23:16;2.00;;;1.67;;
8419;SDS011;4247;48.550;8.822;2023-05-01T00:25:43;2.67;;;1.40;;
8419;SDS011;4247;48.550;8.822;2023-05-01T00:28:10;1.70;;;1.60;;
8419;SDS011;4247;48.550;8.822;2023-05-01T00:30:36;1.90;;;1.80;;
8419;SDS011;4247;48.550;8.822;2023-05-01T00:33:04;3.57;;;1.83;;
8419;SDS011;4247;48.550;8.822;2023-05-01T00:35:31;1.87;;;1.77;;
8419;SDS011;4247;48.550;8.822;2023-05-01T00:38:01;1.60;;;1.50;;
8419;SDS011;4247;48.550;8.822;2023-05-01T00:40:27;2.67;;;1.40;;
8419;SDS011;4247;48.550;8.822;2023-05-01T00:42:54;2.67;;;1.93;;
8419;SDS011;4247;48.550;8.822;2023-05-01T00:45:21;2.53;;;1.70;;
8419;SDS011;4247;48.550;8.822;2023-05-01T00:47:48;1.90;;;1.53;;
8419;SDS011;4247;48.550;8.822;2023-05-01T00:50:15;2.37;;;2.17;;
8419;SDS011;4247;48.550;8.822;2023-05-01T00:52:42;2.23;;;2.00;;
8419;SDS011;4247;48.550;8.822;2023-05-01T00:55:10;2.93;;;1.77;;
8419;SDS011;4247;48.550;8.822;2023-05-01T00:57:37;2.70;;;2.50;;
8419;SDS011;4247;48.550;8.822;2023-05-01T01:00:04;2.20;;;2.10;;
8419;SDS011;4247;48.550;8.822;2023-05-01T01:02:35;1.87;;;1.77;;
8419;SDS011;4247;48.550;8.822;2023-05-01T01:05:02;2.10;;;2.00;;
8419;SDS011;4247;48.550;8.822;2023-05-01T01:07:31;2.07;;;1.90;;
8419;SDS011;4247;48.550;8.822;2023-05-01T01:10:07;2.17;;;2.00;;
8419;SDS011;4247;48.550;8.822;2023-05-01T01:12:45;2.17;;;2.07;;
8419;SDS011;4247;48.550;8.822;2023-05-01T01:15:21;2.93;;;2.33;;
8419;SDS011;4247;48.550;8.822;2023-05-01T01:17:56;3.70;;;2.20;;
8419;SDS011;4247;48.550;8.822;2023-05-01T01:20:31;2.40;;;2.20;;
8419;SDS011;4247;48.550;8.822;2023-05-01T01:26:12;2.30;;;2.10;;
8419;SDS011;4247;48.550;8.822;2023-05-01T01:31:56;2.83;;;2.63;;
8419;SDS011;4247;48.550;8.822;2023-05-01T01:34:30;2.27;;;1.83;;
8419;SDS011;4247;48.550;8.822;2023-05-01T01:36:59;3.73;;;2.10;;
8419;SDS011;4247;48.550;8.822;2023-05-01T01:39:34;4.80;;;2.30;;
8419;SDS011;4247;48.550;8.822;2023-05-01T01:42:08;2.33;;;1.97;;
8419;SDS011;4247;48.550;8.822;2023-05-01T01:44:40;2.73;;;2.53;;
8419;SDS011;4247;48.550;8.822;2023-05-01T01:47:12;3.43;;;2.27;;
8419;SDS011;4247;48.550;8.822;2023-05-01T01:49:43;2.97;;;2.17;;
8419;SDS011;4247;48.550;8.822;2023-05-01T01:52:14;2.10;;;1.90;;
8419;SDS011;4247;48.550;8.822;2023-05-01T01:54:42;2.80;;;2.57;;
8419;SDS011;4247;48.550;8.822;2023-05-01T01:57:15;4.20;;;3.20;;
8419;SDS011;4247;48.550;8.822;2023-05-01T01:59:43;3.23;;;2.40;;
8419;SDS011;4247;48.550;8.822;2023-05-01T02:02:11;5.93;;;2.07;;
8419;SDS011;4247;48.550;8.822;2023-05-01T02:04:40;1.97;;;1.87;;
8419;SDS011;4247;48.550;8.822;2023-05-01T02:07:09;1.83;;;1.73;;
8419;SDS011;4247;48.550;8.822;2023-05-01T02:09:38;2.70;;;2.50;;
8419;SDS011;4247;48.550;8.822;2023-05-01T02:12:06;3.17;;;2.20;;
8419;SDS011;4247;48.550;8.822;2023-05-01T02:14:34;2.60;;;2.27;;
8419;SDS011;4247;48.550;8.822;2023-05-01T02:17:03;2.23;;;2.03;;
8419;SDS011;4247;48.550;8.822;2023-05-01T02:19:30;3.27;;;2.00;;
8419;SDS011;4247;48.550;8.822;2023-05-01T02:21:59;8.03;;;2.23;;
8419;SDS011;4247;48.550;8.822;2023-05-01T02:24:27;3.60;;;2.70;;
8419;SDS011;4247;48.550;8.822;2023-05-01T02:26:59;2.53;;;2.33;;
8419;SDS011;4247;48.550;8.822;2023-05-01T02:29:30;3.10;;;2.20;;
8419;SDS011;4247;48.550;8.822;2023-05-01T02:31:57;2.27;;;2.07;;
8419;SDS011;4247;48.550;8.822;2023-05-01T02:34:25;4.83;;;2.53;;
8419;SDS011;4247;48.550;8.822;2023-05-01T02:36:52;3.60;;;2.33;;
8419;SDS011;4247;48.550;8.822;2023-05-01T02:39:20;2.53;;;2.10;;
8419;SDS011;4247;48.550;8.822;2023-05-01T02:41:47;2.23;;;2.03;;
8419;SDS011;4247;48.550;8.822;2023-05-01T02:44:15;5.10;;;2.00;;
8419;SDS011;4247;48.550;8.822;2023-05-01T02:46:42;2.47;;;2.27;;
8419;SDS011;4247;48.550;8.822;2023-05-01T02:49:12;2.40;;;2.20;;
8419;SDS011;4247;48.550;8.822;2023-05-01T02:51:40;2.77;;;2.30;;
8419;SDS011;4247;48.550;8.822;2023-05-01T02:54:08;2.53;;;2.13;;
8419;SDS011;4247;48.550;8.822;2023-05-01T02:56:36;2.83;;;2.50;;
8419;SDS011;4247;48.550;8.822;2023-05-01T02:59:03;4.60;;;2.00;;
8419;SDS011;4247;48.550;8.822;2023-05-01T03:01:30;2.97;;;2.10;;
8419;SDS011;4247;48.550;8.822;2023-05-01T03:03:57;2.53;;;2.20;;
8419;SDS011;4247;48.550;8.822;2023-05-01T03:06:24;5.27;;;2.70;;
8419;SDS011;4247;48.550;8.822;2023-05-01T03:08:52;2.23;;;2.03;;
8419;SDS011;4247;48.550;8.822;2023-05-01T03:11:19;3.30;;;2.73;;
8419;SDS011;4247;48.550;8.822;2023-05-01T03:13:47;5.37;;;2.50;;
8419;SDS011;4247;48.550;8.822;2023-05-01T03:16:14;3.50;;;2.30;;
8419;SDS011;4247;48.550;8.822;2023-05-01T03:18:41;2.70;;;2.50;;
8419;SDS011;4247;48.550;8.822;2023-05-01T03:21:07;2.60;;;2.40;;
8419;SDS011;4247;48.550;8.822;2023-05-01T03:23:36;2.40;;;2.20;;
8419;SDS011;4247;48.550;8.822;2023-05-01T03:26:03;2.77;;;2.47;;
8419;SDS011;4247;48.550;8.822;2023-05-01T03:28:31;1.97;;;1.87;;
8419;SDS011;4247;48.550;8.822;2023-05-01T03:30:59;2.00;;;1.90;;
8419;SDS011;4247;48.550;8.822;2023-05-01T03:33:26;2.47;;;2.27;;
8419;SDS011;4247;48.550;8.822;2023-05-01T03:35:59;2.37;;;2.17;;
8419;SDS011;4247;48.550;8.822;2023-05-01T03:38:27;2.70;;;2.20;;
8419;SDS011;4247;48.550;8.822;2023-05-01T03:40:54;2.90;;;2.20;;
8419;SDS011;4247;48.550;8.822;2023-05-01T03:43:21;2.43;;;2.23;;
8419;SDS011;4247;48.550;8.822;2023-05-01T03:45:48;2.97;;;2.60;;
8419;SDS011;4247;48.550;8.822;2023-05-01T03:48:17;2.53;;;2.33;;
8419;SDS011;4247;48.550;8.822;2023-05-01T03:50:43;4.13;;;2.80;;
8419;SDS011;4247;48.550;8.822;2023-05-01T03:53:10;2.97;;;2.50;;
8419;SDS011;4247;48.550;8.822;2023-05-01T03:55:38;2.70;;;2.50;;
8419;SDS011;4247;48.550;8.822;2023-05-01T03:58:05;3.90;;;2.90;;
8419;SDS011;4247;48.550;8.822;2023-05-01T04:00:31;2.83;;;2.13;;
8419;SDS011;4247;48.550;8.822;2023-05-01T04:02:59;2.97;;;2.77;;
8419;SDS011;4247;48.550;8.822;2023-05-01T04:05:27;3.93;;;3.13;;
8419;SDS011;4247;48.550;8.822;2023-05-01T04:07:54;2.90;;;2.70;;
8419;SDS011;4247;48.550;8.822;2023-05-01T04:10:20;3.13;;;2.93;;
8419;SDS011;4247;48.550;8.822;2023-05-01T04:12:48;3.47;;;3.17;;
8419;SDS011;4247;48.550;8.822;2023-05-01T04:15:14;3.33;;;2.80;;
8419;SDS011;4247;48.550;8.822;2023-05-01T04:17:41;3.50;;;3.20;;
8419;SDS011;4247;48.550;8.822;2023-05-01T04:20:08;3.33;;;3.03;;
8419;SDS011;4247;48.550;8.822;2023-05-01T04:22:37;3.87;;;3.07;;
8419;SDS011;4247;48.550;8.822;2023-05-01T04:25:04;9.30;;;3.33;;
8419;SDS011;4247;48.550;8.822;2023-05-01T04:27:32;3.77;;;3.30;;
8419;SDS011;4247;48.550;8.822;2023-05-01T04:29:59;3.30;;;3.10;;
8419;SDS011;4247;48.550;8.822;2023-05-01T04:32:26;4.93;;;3.67;;
8419;SDS011;4247;48.550;8.822;2023-05-01T04:34:52;4.10;;;3.70;;
8419;SDS011;4247;48.550;8.822;2023-05-01T04:37:19;4.27;;;3.87;;
8419;SDS011;4247;48.550;8.822;2023-05-01T04:39:47;4.37;;;3.97;;
8419;SDS011;4247;48.550;8.822;2023-05-01T04:42:14;7.20;;;4.37;;
8419;SDS011;4247;48.550;8.822;2023-05-01T04:44:41;11.37;;;5.80;;
8419;SDS011;4247;48.550;8.822;2023-05-01T04:47:08;11.90;;;6.67;;
8419;SDS011;4247;48.550;8.822;2023-05-01T04:49:34;10.93;;;5.73;;
8419;SDS011;4247;48.550;8.822;2023-05-01T04:52:01;8.67;;;4.77;;
8419;SDS011;4247;48.550;8.822;2023-05-01T04:54:28;12.60;;;5.77;;
8419;SDS011;4247;48.550;8.822;2023-05-01T04:56:56;5.97;;;4.10;;
8419;SDS011;4247;48.550;8.822;2023-05-01T04:59:23;3.43;;;3.13;;
8419;SDS011;4247;48.550;8.822;2023-05-01T05:01:49;4.53;;;3.57;;
8419;SDS011;4247;48.550;8.822;2023-05-01T05:04:16;4.47;;;3.47;;
8419;SDS011;4247;48.550;8.822;2023-05-01T05:06:43;3.90;;;2.77;;
8419;SDS011;4247;48.550;8.822;2023-05-01T05:09:09;5.93;;;4.30;;
8419;SDS011;4247;48.550;8.822;2023-05-01T05:11:36;3.03;;;2.83;;
8419;SDS011;4247;48.550;8.822;2023-05-01T05:14:05;4.87;;;3.93;;
8419;SDS011;4247;48.550;8.822;2023-05-01T05:16:31;3.50;;;3.20;;
8419;SDS011;4247;48.550;8.822;2023-05-01T05:18:58;3.43;;;3.10;;
8419;SDS011;4247;48.550;8.822;2023-05-01T05:21:25;3.97;;;2.90;;
8419;SDS011;4247;48.550;8.822;2023-05-01T05:23:52;2.83;;;2.63;;
8419;SDS011;4247;48.550;8.822;2023-05-01T05:26:18;3.03;;;2.67;;
8419;SDS011;4247;48.550;8.822;2023-05-01T05:28:45;2.93;;;2.73;;
8419;SDS011;4247;48.550;8.822;2023-05-01T05:31:13;2.83;;;2.53;;
8419;SDS011;4247;48.550;8.822;2023-05-01T05:33:40;3.77;;;2.97;;
8419;SDS011;4247;48.550;8.822;2023-05-01T05:36:07;3.37;;;3.13;;
8419;SDS011;4247;48.550;8.822;2023-05-01T05:38:34;2.50;;;2.30;;
8419;SDS011;4247;48.550;8.822;2023-05-01T05:41:00;4.70;;;2.63;;
8419;SDS011;4247;48.550;8.822;2023-05-01T05:43:27;2.67;;;2.47;;
8419;SDS011;4247;48.550;8.822;2023-05-01T05:45:57;3.07;;;2.50;;
8419;SDS011;4247;48.550;8.822;2023-05-01T05:48:25;3.37;;;2.97;;
8419;SDS011;4247;48.550;8.822;2023-05-01T05:50:52;4.30;;;3.10;;
8419;SDS011;4247;48.550;8.822;2023-05-01T05:53:20;4.93;;;3.40;;
8419;SDS011;4247;48.550;8.822;2023-05-01T05:55:46;2.63;;;2.43;;
8419;SDS011;4247;48.550;8.822;2023-05-01T05:58:13;6.57;;;2.90;;
8419;SDS011;4247;48.550;8.822;2023-05-01T06:00:44;3.13;;;2.87;;
8419;SDS011;4247;48.550;8.822;2023-05-01T06:03:11;3.87;;;2.77;;
8419;SDS011;4247;48.550;8.822;2023-05-01T06:05:39;3.37;;;3.07;;
8419;SDS011;4247;48.550;8.822;2023-05-01T06:08:07;3.60;;;3.30;;
8419;SDS011;4247;48.550;8.822;2023-05-01T06:10:35;2.63;;;2.43;;
8419;SDS011;4247;48.550;8.822;2023-05-01T06:13:03;2.80;;;2.57;;
8419;SDS011;4247;48.550;8.822;2023-05-01T06:15:30;3.00;;;2.70;;
8419;SDS011;4247;48.550;8.822;2023-05-01T06:17:57;3.50;;;3.20;;
8419;SDS011;4247;48.550;8.822;2023-05-01T06:20:24;3.00;;;2.80;;
8419;SDS011;4247;48.550;8.822;2023-05-01T06:22:52;3.97;;;3.57;;
8419;SDS011;4247;48.550;8.822;2023-05-01T06:25:19;6.60;;;2.87;;
8419;SDS011;4247;48.550;8.822;2023-05-01T06:27:46;3.43;;;3.13;;
8419;SDS011;4247;48.550;8.822;2023-05-01T06:30:13;3.13;;;2.87;;
8419;SDS011;4247;48.550;8.822;2023-05-01T06:32:40;3.27;;;2.70;;
8419;SDS011;4247;48.550;8.822;2023-05-01T06:35:07;4.90;;;3.20;;
8419;SDS011;4247;48.550;8.822;2023-05-01T06:37:34;4.03;;;3.67;;
8419;SDS011;4247;48.550;8.822;2023-05-01T06:40:04;3.30;;;3.00;;
8419;SDS011;4247;48.550;8.822;2023-05-01T06:42:31;3.47;;;3.00;;
8419;SDS011;4247;48.550;8.822;2023-05-01T06:44:58;7.37;;;3.00;;
8419;SDS011;4247;48.550;8.822;2023-05-01T06:47:25;5.47;;;3.60;;
8419;SDS011;4247;48.550;8.822;2023-05-01T06:49:52;3.20;;;3.00;;
8419;SDS011;4247;48.550;8.822;2023-05-01T06:52:18;3.07;;;2.87;;
8419;SDS011;4247;48.550;8.822;2023-05-01T06:54:45;3.13;;;2.93;;
8419;SDS011;4247;48.550;8.822;2023-05-01T06:57:13;3.57;;;3.13;;
8419;SDS011;4247;48.550;8.822;2023-05-01T06:59:40;17.03;;;3.73;;
8419;SDS011;4247;48.550;8.822;2023-05-01T07:02:06;3.13;;;2.93;;
8419;SDS011;4247;48.550;8.822;2023-05-01T07:04:33;7.67;;;3.40;;
8419;SDS011;4247;48.550;8.822;2023-05-01T07:07:00;3.83;;;3.53;;
8419;SDS011;4247;48.550;8.822;2023-05-01T07:09:27;5.03;;;3.07;;
8419;SDS011;4247;48.550;8.822;2023-05-01T07:11:53;3.70;;;3.40;;
8419;SDS011;4247;48.550;8.822;2023-05-01T07:14:22;4.00;;;3.70;;
8419;SDS011;4247;48.550;8.822;2023-05-01T07:16:49;4.70;;;3.30;;
8419;SDS011;4247;48.550;8.822;2023-05-01T07:19:16;4.43;;;3.07;;
8419;SDS011;4247;48.550;8.822;2023-05-01T07:21:42;3.13;;;2.93;;
8419;SDS011;4247;48.550;8.822;2023-05-01T07:24:09;3.40;;;3.10;;
8419;SDS011;4247;48.550;8.822;2023-05-01T07:26:36;5.90;;;3.50;;
8419;SDS011;4247;48.550;8.822;2023-05-01T07:29:03;4.00;;;2.87;;
8419;SDS011;4247;48.550;8.822;2023-05-01T07:31:31;4.97;;;3.33;;
8419;SDS011;4247;48.550;8.822;2023-05-01T07:33:58;3.20;;;3.00;;
8419;SDS011;4247;48.550;8.822;2023-05-01T07:36:25;3.50;;;3.20;;
8419;SDS011;4247;48.550;8.822;2023-05-01T07:38:52;2.97;;;2.77;;
8419;SDS011;4247;48.550;8.822;2023-05-01T07:41:19;3.77;;;3.43;;
8419;SDS011;4247;48.550;8.822;2023-05-01T07:43:46;3.23;;;2.97;;
8419;SDS011;4247;48.550;8.822;2023-05-01T07:46:13;3.40;;;2.83;;
8419;SDS011;4247;48.550;8.822;2023-05-01T07:48:41;3.30;;;3.00;;
8419;SDS011;4247;48.550;8.822;2023-05-01T07:51:08;2.97;;;2.77;;
8419;SDS011;4247;48.550;8.822;2023-05-01T07:53:35;3.83;;;3.07;;
8419;SDS011;4247;48.550;8.822;2023-05-01T07:56:05;5.63;;;3.33;;
8419;SDS011;4247;48.550;8.822;2023-05-01T07:58:32;3.43;;;3.00;;
8419;SDS011;4247;48.550;8.822;2023-05-01T08:01:00;4.70;;;2.77;;
8419;SDS011;4247;48.550;8.822;2023-05-01T08:03:26;3.60;;;3.30;;
8419;SDS011;4247;48.550;8.822;2023-05-01T08:05:55;3.50;;;3.20;;
8419;SDS011;4247;48.550;8.822;2023-05-01T08:08:22;3.00;;;2.80;;
8419;SDS011;4247;48.550;8.822;2023-05-01T08:10:49;6.40;;;3.67;;
8419;SDS011;4247;48.550;8.822;2023-05-01T08:13:17;2.83;;;2.63;;
8419;SDS011;4247;48.550;8.822;2023-05-01T08:15:44;3.33;;;2.97;;
8419;SDS011;4247;48.550;8.822;2023-05-01T08:18:11;2.83;;;2.60;;
8419;SDS011;4247;48.550;8.822;2023-05-01T08:20:43;3.17;;;2.50;;
8419;SDS011;4247;48.550;8.822;2023-05-01T08:23:12;4.97;;;3.07;;
8419;SDS011;4247;48.550;8.822;2023-05-01T08:25:39;2.83;;;2.50;;
8419;SDS011;4247;48.550;8.822;2023-05-01T08:28:06;5.17;;;3.47;;
8419;SDS011;4247;48.550;8.822;2023-05-01T08:30:32;3.73;;;2.90;;
8419;SDS011;4247;48.550;8.822;2023-05-01T08:32:59;3.20;;;3.00;;
8419;SDS011;4247;48.550;8.822;2023-05-01T08:35:26;3.63;;;2.40;;
8419;SDS011;4247;48.550;8.822;2023-05-01T08:37:52;3.43;;;2.40;;
8419;SDS011;4247;48.550;8.822;2023-05-01T08:40:23;2.63;;;2.50;;
8419;SDS011;4247;48.550;8.822;2023-05-01T08:42:51;6.30;;;3.07;;
8419;SDS011;4247;48.550;8.822;2023-05-01T08:45:20;2.53;;;2.33;;
8419;SDS011;4247;48.550;8.822;2023-05-01T08:47:48;3.07;;;2.80;;
8419;SDS011;4247;48.550;8.822;2023-05-01T08:50:17;3.03;;;2.73;;
8419;SDS011;4247;48.550;8.822;2023-05-01T08:52:46;3.20;;;2.70;;
8419;SDS011;4247;48.550;8.822;2023-05-01T08:55:14;4.43;;;2.90;;
8419;SDS011;4247;48.550;8.822;2023-05-01T08:57:44;5.43;;;3.40;;
8419;SDS011;4247;48.550;8.822;2023-05-01T09:00:13;2.43;;;2.23;;
8419;SDS011;4247;48.550;8.822;2023-05-01T09:02:43;2.60;;;2.40;;
8419;SDS011;4247;48.550;8.822;2023-05-01T09:05:12;3.37;;;2.77;;
8419;SDS011;4247;48.550;8.822;2023-05-01T09:07:41;17.30;;;2.43;;
8419;SDS011;4247;48.550;8.822;2023-05-01T09:10:08;3.40;;;3.00;;
8419;SDS011;4247;48.550;8.822;2023-05-01T09:12:36;3.00;;;2.53;;
8419;SDS011;4247;48.550;8.822;2023-05-01T09:15:07;2.77;;;2.50;;
8419;SDS011;4247;48.550;8.822;2023-05-01T09:17:34;3.23;;;2.53;;
8419;SDS011;4247;48.550;8.822;2023-05-01T09:20:02;2.67;;;2.47;;
8419;SDS011;4247;48.550;8.822;2023-05-01T09:22:30;3.00;;;2.40;;
8419;SDS011;4247;48.550;8.822;2023-05-01T09:24:58;2.10;;;2.00;;
8419;SDS011;4247;48.550;8.822;2023-05-01T09:27:25;2.50;;;2.30;;
8419;SDS011;4247;48.550;8.822;2023-05-01T09:29:52;3.67;;;2.73;;
8419;SDS011;4247;48.550;8.822;2023-05-01T09:32:21;2.43;;;2.23;;
8419;SDS011;4247;48.550;8.822;2023-05-01T09:34:52;3.30;;;3.10;;
8419;SDS011;4247;48.550;8.822;2023-05-01T09:37:23;4.13;;;2.50;;
8419;SDS011;4247;48.550;8.822;2023-05-01T09:40:02;2.83;;;2.63;;
8419;SDS011;4247;48.550;8.822;2023-05-01T09:42:29;2.60;;;2.40;;
8419;SDS011;4247;48.550;8.822;2023-05-01T09:44:57;4.40;;;4.00;;
8419;SDS011;4247;48.550;8.822;2023-05-01T09:47:25;2.80;;;2.60;;
8419;SDS011;4247;48.550;8.822;2023-05-01T09:49:53;2.70;;;2.50;;
8419;SDS011;4247;48.550;8.822;2023-05-01T09:52:21;3.30;;;2.37;;
8419;SDS011;4247;48.550;8.822;2023-05-01T09:54:48;3.27;;;2.30;;
8419;SDS011;4247;48.550;8.822;2023-05-01T09:57:15;5.10;;;1.90;;
8419;SDS011;4247;48.550;8.822;2023-05-01T09:59:42;2.77;;;2.57;;
8419;SDS011;4247;48.550;8.822;2023-05-01T10:02:27;2.03;;;1.93;;
8419;SDS011;4247;48.550;8.822;2023-05-01T10:04:56;2.27;;;2.07;;
8419;SDS011;4247;48.550;8.822;2023-05-01T10:07:24;2.80;;;2.60;;
8419;SDS011;4247;48.550;8.822;2023-05-01T10:09:51;6.67;;;2.17;;
8419;SDS011;4247;48.550;8.822;2023-05-01T10:12:22;2.23;;;2.07;;
8419;SDS011;4247;48.550;8.822;2023-05-01T10:14:50;1.87;;;1.77;;
8419;SDS011;4247;48.550;8.822;2023-05-01T10:17:18;2.40;;;2.30;;
8419;SDS011;4247;48.550;8.822;2023-05-01T10:19:46;2.03;;;1.93;;
8419;SDS011;4247;48.550;8.822;2023-05-01T10:22:13;1.90;;;1.80;;
8419;SDS011;4247;48.550;8.822;2023-05-01T10:24:41;3.10;;;2.13;;
8419;SDS011;4247;48.550;8.822;2023-05-01T10:27:09;2.57;;;2.27;;
8419;SDS011;4247;48.550;8.822;2023-05-01T10:29:38;1.90;;;1.80;;
8419;SDS011;4247;48.550;8.822;2023-05-01T10:32:05;2.13;;;1.50;;
8419;SDS011;4247;48.550;8.822;2023-05-01T10:34:34;1.60;;;1.50;;
8419;SDS011;4247;48.550;8.822;2023-05-01T10:37:05;1.57;;;1.47;;
8419;SDS011;4247;48.550;8.822;2023-05-01T10:39:37;1.37;;;1.30;;
8419;SDS011;4247;48.550;8.822;2023-05-01T10:42:05;1.30;;;1.20;;
8419;SDS011;4247;48.550;8.822;2023-05-01T10:44:35;2.40;;;1.00;;
8419;SDS011;4247;48.550;8.822;2023-05-01T10:50:07;7.43;;;1.30;;
8419;SDS011;4247;48.550;8.822;2023-05-01T10:55:36;1.97;;;1.60;;
8419;SDS011;4247;48.550;8.822;2023-05-01T10:58:03;1.33;;;1.23;;
8419;SDS011;4247;48.550;8.822;2023-05-01T11:00:30;1.50;;;1.40;;
8419;SDS011;4247;48.550;8.822;2023-05-01T11:06:04;1.30;;;1.20;;
8419;SDS011;4247;48.550;8.822;2023-05-01T11:08:32;2.10;;;1.40;;
8419;SDS011;4247;48.550;8.822;2023-05-01T11:14:05;1.40;;;1.30;;
8419;SDS011;4247;48.550;8.822;2023-05-01T11:16:41;1.40;;;1.30;;
8419;SDS011;4247;48.550;8.822;2023-05-01T11:19:10;1.07;;;0.97;;
8419;SDS011;4247;48.550;8.822;2023-05-01T11:21:59;1.97;;;1.40;;
8419;SDS011;4247;48.550;8.822;2023-05-01T11:24:32;1.13;;;1.10;;
8419;SDS011;4247;48.550;8.822;2023-05-01T11:26:58;0.97;;;0.90;;
8419;SDS011;4247;48.550;8.822;2023-05-01T11:29:29;0.90;;;0.90;;
8419;SDS011;4247;48.550;8.822;2023-05-01T11:31:57;1.10;;;1.10;;
8419;SDS011;4247;48.550;8.822;2023-05-01T11:34:24;0.97;;;0.93;;
8419;SDS011;4247;48.550;8.822;2023-05-01T11:36:52;1.50;;;1.10;;
8419;SDS011;4247;48.550;8.822;2023-05-01T11:39:20;1.00;;;1.00;;
8419;SDS011;4247;48.550;8.822;2023-05-01T11:41:47;1.40;;;1.30;;
8419;SDS011;4247;48.550;8.822;2023-05-01T11:44:14;0.77;;;0.77;;
8419;SDS011;4247;48.550;8.822;2023-05-01T11:46:41;0.93;;;0.80;;
8419;SDS011;4247;48.550;8.822;2023-05-01T11:49:09;2.40;;;1.10;;
8419;SDS011;4247;48.550;8.822;2023-05-01T11:51:36;1.10;;;1.00;;
8419;SDS011;4247;48.550;8.822;2023-05-01T11:54:03;1.10;;;1.10;;
8419;SDS011;4247;48.550;8.822;2023-05-01T11:56:33;1.13;;;1.13;;
8419;SDS011;4247;48.550;8.822;2023-05-01T11:59:08;1.50;;;1.20;;
8419;SDS011;4247;48.550;8.822;2023-05-01T12:01:36;3.73;;;0.90;;
8419;SDS011;4247;48.550;8.822;2023-05-01T12:04:05;3.50;;;3.13;;
8419;SDS011;4247;48.550;8.822;2023-05-01T12:06:35;2.90;;;2.30;;
8419;SDS011;4247;48.550;8.822;2023-05-01T12:09:05;1.20;;;1.10;;
8419;SDS011;4247;48.550;8.822;2023-05-01T12:11:34;1.33;;;1.23;;
8419;SDS011;4247;48.550;8.822;2023-05-01T12:14:01;1.10;;;1.00;;
8419;SDS011;4247;48.550;8.822;2023-05-01T12:16:28;3.37;;;1.30;;
8419;SDS011;4247;48.550;8.822;2023-05-01T12:18:56;1.67;;;1.30;;
8419;SDS011;4247;48.550;8.822;2023-05-01T12:21:23;1.00;;;1.00;;
8419;SDS011;4247;48.550;8.822;2023-05-01T12:23:51;1.27;;;1.17;;
8419;SDS011;4247;48.550;8.822;2023-05-01T12:26:19;4.47;;;1.17;;
8419;SDS011;4247;48.550;8.822;2023-05-01T12:28:58;3.47;;;1.20;;
8419;SDS011;4247;48.550;8.822;2023-05-01T12:31:25;1.70;;;1.60;;
8419;SDS011;4247;48.550;8.822;2023-05-01T12:33:54;2.60;;;1.60;;
8419;SDS011;4247;48.550;8.822;2023-05-01T12:36:22;1.07;;;1.00;;
8419;SDS011;4247;48.550;8.822;2023-05-01T12:38:54;1.37;;;1.27;;
8419;SDS011;4247;48.550;8.822;2023-05-01T12:41:30;1.13;;;1.13;;
8419;SDS011;4247;48.550;8.822;2023-05-01T12:44:00;1.20;;;1.10;;
8419;SDS011;4247;48.550;8.822;2023-05-01T12:46:27;2.47;;;1.57;;
8419;SDS011;4247;48.550;8.822;2023-05-01T12:48:54;1.27;;;1.20;;
8419;SDS011;4247;48.550;8.822;2023-05-01T12:51:21;1.50;;;1.40;;
8419;SDS011;4247;48.550;8.822;2023-05-01T12:53:48;1.00;;;1.00;;
8419;SDS011;4247;48.550;8.822;2023-05-01T12:56:22;5.53;;;1.47;;
8419;SDS011;4247;48.550;8.822;2023-05-01T12:58:51;4.40;;;2.50;;
8419;SDS011;4247;48.550;8.822;2023-05-01T13:01:24;4.33;;;2.97;;
8419;SDS011;4247;48.550;8.822;2023-05-01T13:03:51;11.70;;;6.30;;
8419;SDS011;4247;48.550;8.822;2023-05-01T13:06:20;18.87;;;9.27;;
8419;SDS011;4247;48.550;8.822;2023-05-01T13:08:47;10.00;;;5.10;;
8419;SDS011;4247;48.550;8.822;2023-05-01T13:11:15;3.60;;;2.67;;
8419;SDS011;4247;48.550;8.822;2023-05-01T13:13:42;3.20;;;2.90;;
8419;SDS011;4247;48.550;8.822;2023-05-01T13:16:10;2.07;;;1.90;;
8419;SDS011;4247;48.550;8.822;2023-05-01T13:18:43;2.93;;;2.20;;
8419;SDS011;4247;48.550;8.822;2023-05-01T13:21:11;2.87;;;1.63;;
8419;SDS011;4247;48.550;8.822;2023-05-01T13:23:40;2.03;;;1.83;;
8419;SDS011;4247;48.550;8.822;2023-05-01T13:26:08;4.17;;;2.10;;
8419;SDS011;4247;48.550;8.822;2023-05-01T13:28:40;1.87;;;1.73;;
8419;SDS011;4247;48.550;8.822;2023-05-01T13:31:11;2.97;;;1.73;;
8419;SDS011;4247;48.550;8.822;2023-05-01T13:33:39;1.63;;;1.20;;
8419;SDS011;4247;48.550;8.822;2023-05-01T13:36:09;1.67;;;1.57;;
8419;SDS011;4247;48.550;8.822;2023-05-01T13:38:41;2.90;;;1.40;;
8419;SDS011;4247;48.550;8.822;2023-05-01T13:41:12;1.40;;;1.30;;
8419;SDS011;4247;48.550;8.822;2023-05-01T13:43:41;2.07;;;1.40;;
8419;SDS011;4247;48.550;8.822;2023-05-01T13:46:08;4.90;;;1.60;;
8419;SDS011;4247;48.550;8.822;2023-05-01T13:48:37;1.80;;;1.23;;
8419;SDS011;4247;48.550;8.822;2023-05-01T13:51:05;3.10;;;1.50;;
8419;SDS011;4247;48.550;8.822;2023-05-01T13:53:33;2.57;;;1.30;;
8419;SDS011;4247;48.550;8.822;2023-05-01T13:56:02;2.60;;;1.37;;
8419;SDS011;4247;48.550;8.822;2023-05-01T13:58:29;2.80;;;1.73;;
8419;SDS011;4247;48.550;8.822;2023-05-01T14:00:56;2.00;;;1.87;;
8419;SDS011;4247;48.550;8.822;2023-05-01T14:03:22;1.37;;;1.00;;
8419;SDS011;4247;48.550;8.822;2023-05-01T14:05:50;2.13;;;1.27;;
8419;SDS011;4247;48.550;8.822;2023-05-01T14:08:19;7.07;;;2.00;;
8419;SDS011;4247;48.550;8.822;2023-05-01T14:10:47;3.13;;;1.63;;
8419;SDS011;4247;48.550;8.822;2023-05-01T14:13:15;1.23;;;1.00;;
8419;SDS011;4247;48.550;8.822;2023-05-01T14:15:42;1.23;;;0.90;;
8419;SDS011;4247;48.550;8.822;2023-05-01T14:18:09;1.53;;;0.87;;
8419;SDS011;4247;48.550;8.822;2023-05-01T14:20:40;1.77;;;1.10;;
8419;SDS011;4247;48.550;8.822;2023-05-01T14:23:09;1.57;;;0.80;;
8419;SDS011;4247;48.550;8.822;2023-05-01T14:25:36;1.93;;;1.10;;
8419;SDS011;4247;48.550;8.822;2023-05-01T14:28:05;2.63;;;1.17;;
8419;SDS011;4247;48.550;8.822;2023-05-01T14:30:33;2.50;;;1.23;;
8419;SDS011;4247;48.550;8.822;2023-05-01T14:33:02;1.00;;;0.90;;
8419;SDS011;4247;48.550;8.822;2023-05-01T14:35:30;1.53;;;1.07;;
8419;SDS011;4247;48.550;8.822;2023-05-01T14:37:56;3.10;;;0.70;;
8419;SDS011;4247;48.550;8.822;2023-05-01T14:40:30;0.90;;;0.90;;
8419;SDS011;4247;48.550;8.822;2023-05-01T14:42:59;0.93;;;0.70;;
8419;SDS011;4247;48.550;8.822;2023-05-01T14:45:28;1.13;;;0.70;;
8419;SDS011;4247;48.550;8.822;2023-05-01T14:47:55;0.60;;;0.60;;
8419;SDS011;4247;48.550;8.822;2023-05-01T14:50:23;3.07;;;0.90;;
8419;SDS011;4247;48.550;8.822;2023-05-01T14:52:53;2.27;;;0.83;;
8419;SDS011;4247;48.550;8.822;2023-05-01T14:55:23;0.90;;;0.90;;
8419;SDS011;4247;48.550;8.822;2023-05-01T14:57:53;2.37;;;1.17;;
8419;SDS011;4247;48.550;8.822;2023-05-01T15:00:21;2.07;;;1.10;;
8419;SDS011;4247;48.550;8.822;2023-05-01T15:02:49;1.77;;;1.23;;
8419;SDS011;4247;48.550;8.822;2023-05-01T15:05:16;2.47;;;1.63;;
8419;SDS011;4247;48.550;8.822;2023-05-01T15:07:43;2.60;;;1.60;;
8419;SDS011;4247;48.550;8.822;2023-05-01T15:10:10;1.40;;;1.30;;
8419;SDS011;4247;48.550;8.822;2023-05-01T15:12:36;1.67;;;1.40;;
8419;SDS011;4247;48.550;8.822;2023-05-01T15:15:04;3.00;;;1.67;;
8419;SDS011;4247;48.550;8.822;2023-05-01T15:17:32;2.50;;;1.20;;
8419;SDS011;4247;48.550;8.822;2023-05-01T15:20:00;1.40;;;1.30;;
8419;SDS011;4247;48.550;8.822;2023-05-01T15:22:27;1.83;;;1.23;;
8419;SDS011;4247;48.550;8.822;2023-05-01T15:24:53;2.27;;;1.43;;
8419;SDS011;4247;48.550;8.822;2023-05-01T15:27:28;6.93;;;2.20;;
8419;SDS011;4247;48.550;8.822;2023-05-01T15:29:55;3.00;;;2.67;;
8419;SDS011;4247;48.550;8.822;2023-05-01T15:32:22;2.67;;;1.60;;
8419;SDS011;4247;48.550;8.822;2023-05-01T15:34:49;3.00;;;1.87;;
8419;SDS011;4247;48.550;8.822;2023-05-01T15:37:20;2.57;;;1.17;;
8419;SDS011;4247;48.550;8.822;2023-05-01T15:39:47;1.20;;;1.10;;